Time;durP1;ratioP1;P1;durP2;ratioP2;P2;SDS_P1;SDS_P2;PMS_P1;PMS_P2;Temp;Humidity;BMP_temperature;BMP_pressure;BME280_temperature;BME280_humidity;BME280_pressure;Samples;Min_cycle;Max_cycle;Signal;HPM_P1;HPM_P2
2021/06/16 00:01:09;;;;;;;;;;;24.20;39.60;;;;;;1481900;40;19940;-71
2021/06/16 00:02:30;;;;;;;;;;;24.20;39.60;;;;;;1483370;40;19932;-72
2021/06/16 00:03:50;;;;;;;;;;;24.20;39.60;;;;;;1481915;40;20236;-71
2021/06/16 00:05:13;;;;;;;;;;;24.20;39.60;;;;;;1480303;40;19941;-71
2021/06/16 00:06:34;;;;;;;;;;;24.20;39.60;;;;;;1481186;40;20377;-72
2021/06/16 00:07:55;;;;;;;;;;;24.20;39.60;;;;;;1481581;40;20305;-71
2021/06/16 00:09:15;;;;;;;;;;;24.10;39.60;;;;;;1482690;40;19940;-71
2021/06/16 00:10:36;;;;;;;;;;;24.10;39.60;;;;;;1482458;40;20029;-72
2021/06/16 00:11:57;;;;;;;;;;;24.10;39.70;;;;;;1481325;40;19967;-72
2021/06/16 00:13:18;;;;;;;;;;;24.10;39.70;;;;;;1482182;40;20026;-71
2021/06/16 00:14:39;;;;;;;;;;;24.10;39.60;;;;;;1480982;40;20146;-71
2021/06/16 00:16:00;;;;;;;;;;;24.10;39.70;;;;;;1482976;40;19987;-71
2021/06/16 00:17:20;;;;;;;;;;;24.10;39.70;;;;;;1483737;40;20054;-71
2021/06/16 00:18:41;;;;;;;;;;;24.10;39.70;;;;;;1483121;40;20820;-71
2021/06/16 00:20:03;;;;;;;;;;;24.10;39.80;;;;;;1481214;40;20151;-71
2021/06/16 00:21:23;;;;;;;;;;;24.10;39.70;;;;;;1482032;40;20032;-71
2021/06/16 00:22:44;;;;;;;;;;;24.10;39.80;;;;;;1481671;40;19943;-71
2021/06/16 00:24:05;;;;;;;;;;;24.00;39.70;;;;;;1483273;40;19936;-71
2021/06/16 00:25:26;;;;;;;;;;;24.10;39.80;;;;;;1483335;40;19936;-72
2021/06/16 00:26:47;;;;;;;;;;;24.00;39.80;;;;;;1483742;40;19948;-71
2021/06/16 00:28:08;;;;;;;;;;;24.00;39.80;;;;;;1482087;40;19940;-71
2021/06/16 00:29:29;;;;;;;;;;;24.00;39.80;;;;;;1481423;40;20363;-72
2021/06/16 00:30:50;;;;;;;;;;;24.00;40.30;;;;;;1481042;40;19940;-71
2021/06/16 00:32:11;;;;;;;;;;;24.00;39.80;;;;;;1481891;40;20249;-71
2021/06/16 00:33:32;;;;;;;;;;;23.90;39.70;;;;;;1481521;40;20220;-72
2021/06/16 00:34:52;;;;;;;;;;;23.90;39.80;;;;;;1481217;40;19939;-71
2021/06/16 00:36:13;;;;;;;;;;;23.90;39.80;;;;;;1482993;40;20469;-71
2021/06/16 00:37:35;;;;;;;;;;;23.90;39.80;;;;;;1483106;40;19940;-71
2021/06/16 00:38:56;;;;;;;;;;;23.90;39.80;;;;;;1481879;40;19952;-72
2021/06/16 00:40:23;;;;;;;;;;;23.90;39.80;;;;;;1483546;40;19947;-71
2021/06/16 00:41:45;;;;;;;;;;;23.90;39.80;;;;;;1483869;40;20249;-71
2021/06/16 00:43:05;;;;;;;;;;;23.90;39.70;;;;;;1481679;40;19945;-72
2021/06/16 00:44:26;;;;;;;;;;;23.90;39.70;;;;;;1483100;40;20137;-71
2021/06/16 00:45:47;;;;;;;;;;;23.90;39.70;;;;;;1483695;40;20598;-71
2021/06/16 00:47:08;;;;;;;;;;;23.90;39.70;;;;;;1481662;40;19941;-71
2021/06/16 00:48:29;;;;;;;;;;;23.90;39.80;;;;;;1481322;40;20556;-71
2021/06/16 00:49:50;;;;;;;;;;;23.90;39.70;;;;;;1483184;40;20360;-72
2021/06/16 00:51:11;;;;;;;;;;;23.80;39.70;;;;;;1483548;40;19938;-72
2021/06/16 00:52:31;;;;;;;;;;;23.90;39.80;;;;;;1482037;40;20316;-71
2021/06/16 00:53:52;;;;;;;;;;;23.90;39.80;;;;;;1482864;40;19944;-71
2021/06/16 00:55:13;;;;;;;;;;;23.90;39.80;;;;;;1483541;40;19944;-71
2021/06/16 00:56:34;;;;;;;;;;;23.80;39.80;;;;;;1482160;40;19938;-71
2021/06/16 00:57:55;;;;;;;;;;;23.80;39.80;;;;;;1479937;40;19936;-71
2021/06/16 00:59:16;;;;;;;;;;;23.80;39.80;;;;;;1483248;40;19943;-71
2021/06/16 01:00:40;;;;;;;;;;;23.80;39.80;;;;;;1482181;40;19937;-71
2021/06/16 01:02:02;;;;;;;;;;;23.80;39.80;;;;;;1482936;40;19944;-71
2021/06/16 01:03:25;;;;;;;;;;;23.80;39.80;;;;;;1481056;40;19941;-71
2021/06/16 01:04:47;;;;;;;;;;;23.80;39.80;;;;;;1481293;40;20173;-71
2021/06/16 01:06:21;;;;;;;;;;;23.70;39.70;;;;;;1480717;40;19947;-71
2021/06/16 01:07:43;;;;;;;;;;;23.80;39.80;;;;;;1483282;40;19944;-71
2021/06/16 01:09:11;;;;;;;;;;;23.70;39.70;;;;;;1482167;40;19956;-71
2021/06/16 01:10:34;;;;;;;;;;;23.80;39.80;;;;;;1481402;40;19936;-71
2021/06/16 01:12:06;;;;;;;;;;;23.70;39.80;;;;;;1483238;40;20198;-71
2021/06/16 01:13:36;;;;;;;;;;;23.70;39.80;;;;;;1481343;40;19936;-71
2021/06/16 01:15:00;;;;;;;;;;;23.70;39.80;;;;;;1479136;40;19937;-72
2021/06/16 01:16:24;;;;;;;;;;;23.70;39.80;;;;;;1481818;40;19982;-71
2021/06/16 01:17:52;;;;;;;;;;;23.70;39.80;;;;;;1482633;40;19937;-71
2021/06/16 01:19:16;;;;;;;;;;;23.70;39.90;;;;;;1484193;40;19940;-71
2021/06/16 01:20:41;;;;;;;;;;;23.70;39.80;;;;;;1480495;40;19932;-71
2021/06/16 01:22:03;;;;;;;;;;;23.70;40.00;;;;;;1483679;40;20056;-71
2021/06/16 01:23:53;;;;;;;;;;;23.70;40.00;;;;;;1483693;40;19940;-71
2021/06/16 01:25:21;;;;;;;;;;;23.70;40.00;;;;;;1478959;40;19959;-71
2021/06/16 01:26:49;;;;;;;;;;;23.70;40.00;;;;;;1481999;40;19991;-71
2021/06/16 01:28:10;;;;;;;;;;;23.70;39.90;;;;;;1482841;40;20036;-71
2021/06/16 01:29:33;;;;;;;;;;;23.70;40.00;;;;;;1482198;40;19941;-72
2021/06/16 01:30:55;;;;;;;;;;;23.70;40.20;;;;;;1479785;40;19943;-71
2021/06/16 01:32:16;;;;;;;;;;;23.70;40.20;;;;;;1477346;40;19940;-71
2021/06/16 01:33:37;;;;;;;;;;;23.70;40.20;;;;;;1482873;40;19933;-71
2021/06/16 01:34:58;;;;;;;;;;;23.70;40.20;;;;;;1482846;40;19932;-72
2021/06/16 01:36:22;;;;;;;;;;;23.60;40.20;;;;;;1482810;40;19980;-71
2021/06/16 01:37:42;;;;;;;;;;;23.60;40.30;;;;;;1479740;40;19943;-71
2021/06/16 01:39:08;;;;;;;;;;;23.60;40.30;;;;;;1482119;40;19939;-71
2021/06/16 01:40:29;;;;;;;;;;;23.60;40.30;;;;;;1482243;40;19969;-71
2021/06/16 01:41:52;;;;;;;;;;;23.60;40.30;;;;;;1481604;40;19944;-71
2021/06/16 01:43:13;;;;;;;;;;;23.60;40.30;;;;;;1480818;40;19944;-71
2021/06/16 01:44:34;;;;;;;;;;;23.50;40.20;;;;;;1482676;40;20265;-71
2021/06/16 01:45:57;;;;;;;;;;;23.60;40.30;;;;;;1480905;40;20334;-71
2021/06/16 01:47:22;;;;;;;;;;;23.50;40.30;;;;;;1482614;40;19933;-71
2021/06/16 01:48:45;;;;;;;;;;;23.50;40.30;;;;;;1482197;40;19984;-71
2021/06/16 01:50:06;;;;;;;;;;;23.50;40.50;;;;;;1479222;40;19989;-71
2021/06/16 01:51:27;;;;;;;;;;;23.50;40.40;;;;;;1481520;40;19984;-71
2021/06/16 01:52:50;;;;;;;;;;;23.50;40.40;;;;;;1481281;40;20335;-71
2021/06/16 01:54:11;;;;;;;;;;;23.50;40.50;;;;;;1482889;40;20040;-71
2021/06/16 01:55:32;;;;;;;;;;;23.50;40.40;;;;;;1480033;40;20249;-71
2021/06/16 01:56:53;;;;;;;;;;;23.50;40.40;;;;;;1482899;40;20172;-71
2021/06/16 01:58:16;;;;;;;;;;;23.50;40.50;;;;;;1481287;40;19944;-71
2021/06/16 01:59:41;;;;;;;;;;;23.50;40.50;;;;;;1483851;40;19940;-71
2021/06/16 02:01:03;;;;;;;;;;;23.50;40.40;;;;;;1483495;40;20034;-71
2021/06/16 02:02:24;;;;;;;;;;;23.50;40.50;;;;;;1483948;40;19940;-71
2021/06/16 02:03:44;;;;;;;;;;;23.40;40.40;;;;;;1486036;40;19973;-71
2021/06/16 02:05:06;;;;;;;;;;;23.50;40.50;;;;;;1487000;40;19948;-71
2021/06/16 02:06:28;;;;;;;;;;;23.40;40.40;;;;;;1482522;40;20249;-71
2021/06/16 02:07:51;;;;;;;;;;;23.40;40.50;;;;;;1483161;40;19937;-71
2021/06/16 02:09:12;;;;;;;;;;;23.40;40.50;;;;;;1484641;40;19940;-71
2021/06/16 02:10:38;;;;;;;;;;;23.40;40.60;;;;;;1483541;40;20187;-71
2021/06/16 02:11:59;;;;;;;;;;;23.40;40.60;;;;;;1483504;40;19947;-71
2021/06/16 02:13:25;;;;;;;;;;;23.40;40.60;;;;;;1487961;40;19932;-71
2021/06/16 02:14:49;;;;;;;;;;;23.40;40.60;;;;;;1486725;40;19933;-71
2021/06/16 02:16:14;;;;;;;;;;;23.40;40.70;;;;;;1486843;40;19948;-71
2021/06/16 02:17:35;;;;;;;;;;;23.40;40.70;;;;;;1488303;40;19939;-71
2021/06/16 02:18:59;;;;;;;;;;;23.40;40.70;;;;;;1487699;40;19940;-71
2021/06/16 02:20:20;;;;;;;;;;;23.30;40.60;;;;;;1483202;40;20300;-71
2021/06/16 02:21:42;;;;;;;;;;;23.40;40.60;;;;;;1484501;40;20138;-71
2021/06/16 02:23:03;;;;;;;;;;;23.30;40.60;;;;;;1482691;40;19933;-71
2021/06/16 02:24:24;;;;;;;;;;;23.30;40.80;;;;;;1484459;40;19940;-71
2021/06/16 02:25:46;;;;;;;;;;;23.30;40.80;;;;;;1484168;40;19959;-71
2021/06/16 02:27:07;;;;;;;;;;;23.30;40.80;;;;;;1483321;40;19948;-71
2021/06/16 02:28:28;;;;;;;;;;;23.30;40.90;;;;;;1482391;40;20021;-71
2021/06/16 02:29:49;;;;;;;;;;;23.30;40.80;;;;;;1481231;40;19933;-71
2021/06/16 02:31:11;;;;;;;;;;;23.30;40.90;;;;;;1483571;40;19932;-71
2021/06/16 02:32:32;;;;;;;;;;;23.30;40.80;;;;;;1479044;40;20347;-71
2021/06/16 02:33:53;;;;;;;;;;;23.30;40.90;;;;;;1479088;40;20034;-71
2021/06/16 02:35:14;;;;;;;;;;;23.30;40.80;;;;;;1483000;40;19940;-71
2021/06/16 02:36:45;;;;;;;;;;;23.30;40.80;;;;;;1481084;40;19933;-71
2021/06/16 02:38:11;;;;;;;;;;;23.30;40.80;;;;;;1483984;40;19948;-71
2021/06/16 02:39:36;;;;;;;;;;;23.30;40.80;;;;;;1481285;40;19939;-71
2021/06/16 02:40:59;;;;;;;;;;;23.20;40.80;;;;;;1481893;40;20018;-71
2021/06/16 02:42:21;;;;;;;;;;;23.30;40.80;;;;;;1483008;40;20021;-71
2021/06/16 02:43:42;;;;;;;;;;;23.20;40.80;;;;;;1481645;40;19943;-71
2021/06/16 02:45:03;;;;;;;;;;;23.20;40.80;;;;;;1481990;40;19943;-71
2021/06/16 02:46:25;;;;;;;;;;;23.20;40.80;;;;;;1483013;40;19939;-71
2021/06/16 02:47:48;;;;;;;;;;;23.20;40.80;;;;;;1483314;40;19932;-71
2021/06/16 02:49:09;;;;;;;;;;;23.20;40.80;;;;;;1484460;40;20002;-71
2021/06/16 02:50:30;;;;;;;;;;;23.20;40.90;;;;;;1484935;40;19936;-71
2021/06/16 02:51:51;;;;;;;;;;;23.20;40.90;;;;;;1484543;40;19944;-72
2021/06/16 02:53:14;;;;;;;;;;;23.20;40.90;;;;;;1480485;40;19943;-71
2021/06/16 02:54:35;;;;;;;;;;;23.20;40.90;;;;;;1484061;40;19940;-71
2021/06/16 02:56:00;;;;;;;;;;;23.20;41.00;;;;;;1482220;40;19998;-71
2021/06/16 02:57:22;;;;;;;;;;;23.20;41.00;;;;;;1484555;40;19939;-71
2021/06/16 02:58:46;;;;;;;;;;;23.20;41.10;;;;;;1484070;40;20026;-71
2021/06/16 03:00:08;;;;;;;;;;;23.10;41.00;;;;;;1483397;40;20002;-71
2021/06/16 03:01:29;;;;;;;;;;;23.10;41.20;;;;;;1484765;40;19993;-71
2021/06/16 03:02:50;;;;;;;;;;;23.20;41.30;;;;;;1485468;40;19932;-71
2021/06/16 03:04:11;;;;;;;;;;;23.10;41.10;;;;;;1484027;40;19944;-71
2021/06/16 03:05:32;;;;;;;;;;;23.10;41.10;;;;;;1484639;40;19948;-71
2021/06/16 03:06:55;;;;;;;;;;;23.10;41.10;;;;;;1482389;40;20100;-71
2021/06/16 03:08:16;;;;;;;;;;;23.10;41.10;;;;;;1481664;40;19964;-71
2021/06/16 03:09:40;;;;;;;;;;;23.10;41.10;;;;;;1481322;40;20212;-71
2021/06/16 03:11:01;;;;;;;;;;;23.10;41.10;;;;;;1482642;40;20399;-71
2021/06/16 03:12:22;;;;;;;;;;;23.10;41.20;;;;;;1481996;40;19990;-71
2021/06/16 03:13:44;;;;;;;;;;;23.10;41.20;;;;;;1481521;40;19937;-71
2021/06/16 03:15:05;;;;;;;;;;;23.00;41.10;;;;;;1481603;40;20641;-71
2021/06/16 03:16:26;;;;;;;;;;;23.10;41.10;;;;;;1483499;40;20066;-71
2021/06/16 03:17:48;;;;;;;;;;;23.10;41.20;;;;;;1482509;40;19936;-71
2021/06/16 03:19:10;;;;;;;;;;;23.00;41.10;;;;;;1482713;40;19940;-71
2021/06/16 03:20:31;;;;;;;;;;;23.00;41.20;;;;;;1482072;40;19957;-71
2021/06/16 03:21:52;;;;;;;;;;;23.00;41.10;;;;;;1481294;40;19952;-71
2021/06/16 03:23:13;;;;;;;;;;;23.00;41.20;;;;;;1483271;40;19952;-71
2021/06/16 03:24:35;;;;;;;;;;;23.00;41.20;;;;;;1482717;40;19953;-71
2021/06/16 03:25:57;;;;;;;;;;;23.00;41.30;;;;;;1483741;40;19970;-71
2021/06/16 03:27:22;;;;;;;;;;;22.90;41.40;;;;;;1483814;40;19940;-71
2021/06/16 03:28:43;;;;;;;;;;;22.90;41.30;;;;;;1482303;40;19941;-71
2021/06/16 03:30:04;;;;;;;;;;;22.90;41.30;;;;;;1481359;40;19944;-71
2021/06/16 03:31:25;;;;;;;;;;;22.90;41.60;;;;;;1482174;40;19933;-71
2021/06/16 03:32:47;;;;;;;;;;;22.90;41.40;;;;;;1484023;40;19955;-71
2021/06/16 03:34:09;;;;;;;;;;;22.90;41.40;;;;;;1484434;40;19943;-71
2021/06/16 03:35:30;;;;;;;;;;;22.90;41.40;;;;;;1482489;40;20332;-71
2021/06/16 03:36:51;;;;;;;;;;;22.90;41.50;;;;;;1482012;40;20024;-71
2021/06/16 03:38:12;;;;;;;;;;;22.90;41.50;;;;;;1483330;40;20029;-71
2021/06/16 03:39:34;;;;;;;;;;;22.90;41.70;;;;;;1484038;40;19936;-71
2021/06/16 03:40:55;;;;;;;;;;;22.90;41.70;;;;;;1482473;40;19939;-72
2021/06/16 03:42:16;;;;;;;;;;;22.90;41.70;;;;;;1483849;40;19959;-71
2021/06/16 03:43:38;;;;;;;;;;;22.80;41.70;;;;;;1482442;40;20364;-71
2021/06/16 03:45:02;;;;;;;;;;;22.80;41.60;;;;;;1480172;40;19977;-71
2021/06/16 03:46:23;;;;;;;;;;;22.80;41.70;;;;;;1482959;40;19995;-71
2021/06/16 03:47:46;;;;;;;;;;;22.80;41.70;;;;;;1481525;40;20069;-71
2021/06/16 03:49:09;;;;;;;;;;;22.80;41.70;;;;;;1480821;40;19944;-72
2021/06/16 03:50:30;;;;;;;;;;;22.70;41.70;;;;;;1483553;40;20225;-71
2021/06/16 03:51:51;;;;;;;;;;;22.80;41.70;;;;;;1481375;40;20265;-72
2021/06/16 03:53:13;;;;;;;;;;;22.80;41.70;;;;;;1484030;40;19943;-71
2021/06/16 03:54:35;;;;;;;;;;;22.70;41.70;;;;;;1482045;40;19943;-71
2021/06/16 03:55:56;;;;;;;;;;;22.80;41.80;;;;;;1483518;40;19932;-71
2021/06/16 03:57:18;;;;;;;;;;;22.70;41.80;;;;;;1479715;40;19943;-71
2021/06/16 03:58:40;;;;;;;;;;;22.80;41.90;;;;;;1482373;40;19952;-71
2021/06/16 04:00:02;;;;;;;;;;;22.80;42.00;;;;;;1482965;40;20011;-71
2021/06/16 04:01:22;;;;;;;;;;;22.80;41.90;;;;;;1481945;40;19947;-71
2021/06/16 04:02:45;;;;;;;;;;;22.70;42.20;;;;;;1481538;40;19933;-71
2021/06/16 04:04:06;;;;;;;;;;;22.70;41.90;;;;;;1482691;40;19937;-71
2021/06/16 04:05:27;;;;;;;;;;;22.70;41.90;;;;;;1481001;40;19937;-71
2021/06/16 04:06:48;;;;;;;;;;;22.70;42.00;;;;;;1481690;40;19932;-71
2021/06/16 04:08:10;;;;;;;;;;;22.70;42.10;;;;;;1481755;40;19932;-71
2021/06/16 04:09:31;;;;;;;;;;;22.70;42.10;;;;;;1481416;40;19957;-71
2021/06/16 04:10:52;;;;;;;;;;;22.70;42.20;;;;;;1482421;40;20269;-71
2021/06/16 04:12:13;;;;;;;;;;;22.70;42.30;;;;;;1480751;40;20249;-71
2021/06/16 04:13:35;;;;;;;;;;;22.70;42.20;;;;;;1482813;40;20491;-71
2021/06/16 04:14:56;;;;;;;;;;;22.70;42.30;;;;;;1482573;40;20477;-71
2021/06/16 04:16:17;;;;;;;;;;;22.70;42.30;;;;;;1481707;40;19961;-71
2021/06/16 04:17:38;;;;;;;;;;;22.60;42.20;;;;;;1483028;40;19955;-71
2021/06/16 04:18:58;;;;;;;;;;;22.60;42.20;;;;;;1484341;40;19940;-71
2021/06/16 04:20:20;;;;;;;;;;;22.70;42.30;;;;;;1481265;40;20029;-71
2021/06/16 04:21:40;;;;;;;;;;;22.70;42.30;;;;;;1482206;40;19968;-71
2021/06/16 04:23:01;;;;;;;;;;;22.70;42.40;;;;;;1481454;40;20037;-71
2021/06/16 04:24:22;;;;;;;;;;;22.70;42.40;;;;;;1481608;40;19969;-71
2021/06/16 04:25:43;;;;;;;;;;;22.60;42.40;;;;;;1482151;40;19936;-71
2021/06/16 04:27:04;;;;;;;;;;;22.60;42.40;;;;;;1483450;40;20230;-71
2021/06/16 04:28:25;;;;;;;;;;;22.60;42.50;;;;;;1483353;40;19932;-71
2021/06/16 04:29:46;;;;;;;;;;;22.60;42.50;;;;;;1479006;40;19944;-72
2021/06/16 04:31:07;;;;;;;;;;;22.60;42.50;;;;;;1482349;40;19932;-71
2021/06/16 04:32:28;;;;;;;;;;;22.60;42.50;;;;;;1481564;40;19932;-72
2021/06/16 04:33:48;;;;;;;;;;;22.60;42.40;;;;;;1482251;40;19948;-72
2021/06/16 04:35:10;;;;;;;;;;;22.60;42.50;;;;;;1483358;40;19936;-72
2021/06/16 04:36:31;;;;;;;;;;;22.60;42.50;;;;;;1483759;40;19948;-72
2021/06/16 04:37:51;;;;;;;;;;;22.60;42.50;;;;;;1481446;40;19949;-72
2021/06/16 04:39:12;;;;;;;;;;;22.60;42.60;;;;;;1481766;40;19940;-71
2021/06/16 04:40:33;;;;;;;;;;;22.60;42.70;;;;;;1483231;40;20196;-72
2021/06/16 04:41:54;;;;;;;;;;;22.60;42.60;;;;;;1480132;40;20028;-72
2021/06/16 04:43:15;;;;;;;;;;;22.60;42.60;;;;;;1482877;40;19932;-72
2021/06/16 04:44:36;;;;;;;;;;;22.60;42.60;;;;;;1481473;40;19932;-72
2021/06/16 04:45:57;;;;;;;;;;;22.60;42.70;;;;;;1482662;40;19948;-72
2021/06/16 04:47:17;;;;;;;;;;;22.70;42.80;;;;;;1483100;40;19939;-72
2021/06/16 04:48:42;;;;;;;;;;;22.70;42.80;;;;;;1482969;40;19932;-70
2021/06/16 04:50:04;;;;;;;;;;;22.60;42.80;;;;;;1479133;40;20264;-70
2021/06/16 04:51:24;;;;;;;;;;;22.60;42.80;;;;;;1480568;40;20008;-70
2021/06/16 04:52:45;;;;;;;;;;;22.60;42.80;;;;;;1483544;40;19966;-70
2021/06/16 04:54:10;;;;;;;;;;;22.60;42.80;;;;;;1483788;40;19942;-70
2021/06/16 04:55:31;;;;;;;;;;;22.60;42.80;;;;;;1483474;40;19948;-70
2021/06/16 04:56:51;;;;;;;;;;;22.60;42.90;;;;;;1483218;40;20024;-70
2021/06/16 04:58:12;;;;;;;;;;;22.60;43.00;;;;;;1481148;40;20015;-72
2021/06/16 04:59:33;;;;;;;;;;;22.60;43.10;;;;;;1483250;40;19967;-71
2021/06/16 05:00:54;;;;;;;;;;;22.60;42.80;;;;;;1482649;40;20058;-72
2021/06/16 05:02:15;;;;;;;;;;;22.60;42.90;;;;;;1482285;40;19936;-72
2021/06/16 05:03:36;;;;;;;;;;;22.60;42.90;;;;;;1482595;40;19944;-72
2021/06/16 05:04:57;;;;;;;;;;;22.60;43.00;;;;;;1482594;40;19944;-72
2021/06/16 05:06:18;;;;;;;;;;;22.60;43.00;;;;;;1482743;40;19936;-72
2021/06/16 05:07:38;;;;;;;;;;;22.60;43.00;;;;;;1480199;40;19943;-72
2021/06/16 05:08:59;;;;;;;;;;;22.60;43.00;;;;;;1483252;40;19933;-72
2021/06/16 05:10:20;;;;;;;;;;;22.60;43.00;;;;;;1483280;40;19932;-72
2021/06/16 05:11:41;;;;;;;;;;;22.60;43.00;;;;;;1481932;40;19943;-71
2021/06/16 05:13:02;;;;;;;;;;;22.70;43.00;;;;;;1481904;40;19944;-72
2021/06/16 05:14:24;;;;;;;;;;;22.60;43.00;;;;;;1482156;40;19936;-72
2021/06/16 05:15:45;;;;;;;;;;;22.60;43.00;;;;;;1482236;40;19940;-72
2021/06/16 05:17:06;;;;;;;;;;;22.60;43.00;;;;;;1482131;40;19945;-72
2021/06/16 05:18:27;;;;;;;;;;;22.60;43.10;;;;;;1481573;40;20246;-72
2021/06/16 05:19:55;;;;;;;;;;;22.60;43.10;;;;;;1481397;40;19962;-72
2021/06/16 05:21:16;;;;;;;;;;;22.60;43.20;;;;;;1481618;40;19990;-72
2021/06/16 05:22:38;;;;;;;;;;;22.60;43.20;;;;;;1483532;40;19952;-72
2021/06/16 05:23:59;;;;;;;;;;;22.70;43.20;;;;;;1482997;40;19933;-72
2021/06/16 05:25:19;;;;;;;;;;;22.70;43.30;;;;;;1482376;40;19959;-72
2021/06/16 05:26:41;;;;;;;;;;;22.70;43.40;;;;;;1482364;40;19932;-72
2021/06/16 05:28:01;;;;;;;;;;;22.70;43.40;;;;;;1480639;40;19945;-72
2021/06/16 05:29:22;;;;;;;;;;;22.70;43.50;;;;;;1482509;40;20154;-72
2021/06/16 05:30:43;;;;;;;;;;;22.70;43.50;;;;;;1482075;40;19947;-72
2021/06/16 05:32:04;;;;;;;;;;;22.70;43.50;;;;;;1483792;40;19943;-71
2021/06/16 05:33:25;;;;;;;;;;;22.70;43.50;;;;;;1482393;40;19939;-72
2021/06/16 05:34:45;;;;;;;;;;;22.70;43.60;;;;;;1483841;40;20741;-72
2021/06/16 05:36:07;;;;;;;;;;;22.70;43.60;;;;;;1480598;40;20042;-72
2021/06/16 05:37:27;;;;;;;;;;;22.70;43.60;;;;;;1483343;40;20195;-72
2021/06/16 05:38:49;;;;;;;;;;;22.70;43.60;;;;;;1481395;40;19968;-71
2021/06/16 05:40:10;;;;;;;;;;;22.70;43.60;;;;;;1477976;40;19944;-72
2021/06/16 05:41:30;;;;;;;;;;;22.70;43.60;;;;;;1480587;40;19933;-72
2021/06/16 05:42:51;;;;;;;;;;;22.80;43.70;;;;;;1482681;40;20550;-72
2021/06/16 05:44:12;;;;;;;;;;;22.70;43.60;;;;;;1481722;40;19947;-72
2021/06/16 05:45:33;;;;;;;;;;;22.80;43.70;;;;;;1483160;40;19952;-72
2021/06/16 05:46:54;;;;;;;;;;;22.80;43.80;;;;;;1483970;40;19977;-72
2021/06/16 05:48:15;;;;;;;;;;;22.80;43.80;;;;;;1482173;40;19944;-72
2021/06/16 05:49:35;;;;;;;;;;;22.80;43.80;;;;;;1480796;40;19969;-72
2021/06/16 05:50:56;;;;;;;;;;;22.90;43.90;;;;;;1480995;40;19973;-70
2021/06/16 05:52:17;;;;;;;;;;;22.80;43.90;;;;;;1482673;40;19936;-72
2021/06/16 05:53:38;;;;;;;;;;;22.90;43.90;;;;;;1483150;39;19936;-72
2021/06/16 05:54:59;;;;;;;;;;;22.90;44.00;;;;;;1482990;40;20237;-72
2021/06/16 05:56:20;;;;;;;;;;;22.90;43.90;;;;;;1482659;40;19944;-72
2021/06/16 05:57:41;;;;;;;;;;;22.90;43.90;;;;;;1481800;40;19936;-72
2021/06/16 05:59:01;;;;;;;;;;;23.00;44.10;;;;;;1481997;40;19948;-72
2021/06/16 06:00:23;;;;;;;;;;;23.00;44.10;;;;;;1481840;40;19943;-72
2021/06/16 06:01:44;;;;;;;;;;;23.00;44.10;;;;;;1483790;40;19952;-72
2021/06/16 06:03:05;;;;;;;;;;;23.00;44.10;;;;;;1483273;40;19933;-72
2021/06/16 06:04:26;;;;;;;;;;;23.00;44.10;;;;;;1482903;40;19940;-72
2021/06/16 06:05:47;;;;;;;;;;;23.10;44.20;;;;;;1481070;40;19952;-72
2021/06/16 06:07:08;;;;;;;;;;;23.10;44.20;;;;;;1482682;40;19959;-72
2021/06/16 06:08:29;;;;;;;;;;;23.10;44.20;;;;;;1483837;40;19952;-72
2021/06/16 06:09:50;;;;;;;;;;;23.10;44.20;;;;;;1482681;40;19940;-72
2021/06/16 06:11:10;;;;;;;;;;;23.10;44.20;;;;;;1482803;40;20339;-72
2021/06/16 06:12:31;;;;;;;;;;;23.20;44.30;;;;;;1481786;40;19977;-71
2021/06/16 06:13:52;;;;;;;;;;;23.10;44.30;;;;;;1483902;40;19940;-72
2021/06/16 06:15:14;;;;;;;;;;;23.20;44.30;;;;;;1482271;40;19976;-72
2021/06/16 06:16:35;;;;;;;;;;;23.20;44.30;;;;;;1482800;40;19936;-72
2021/06/16 06:17:57;;;;;;;;;;;23.20;44.30;;;;;;1482072;40;19940;-72
2021/06/16 06:19:17;;;;;;;;;;;23.30;44.30;;;;;;1483191;40;19933;-72
2021/06/16 06:20:38;;;;;;;;;;;23.20;44.30;;;;;;1482650;40;20029;-72
2021/06/16 06:21:59;;;;;;;;;;;23.30;44.40;;;;;;1483151;40;20267;-72
2021/06/16 06:23:20;;;;;;;;;;;23.30;44.40;;;;;;1482466;40;20007;-72
2021/06/16 06:24:40;;;;;;;;;;;23.30;44.50;;;;;;1482104;40;20288;-72
2021/06/16 06:26:01;;;;;;;;;;;23.40;44.50;;;;;;1482807;40;19948;-71
2021/06/16 06:27:22;;;;;;;;;;;23.40;44.50;;;;;;1483778;40;19940;-72
2021/06/16 06:28:43;;;;;;;;;;;23.40;44.50;;;;;;1481719;40;19944;-72
2021/06/16 06:30:04;;;;;;;;;;;23.40;44.50;;;;;;1483193;40;19933;-72
2021/06/16 06:31:25;;;;;;;;;;;23.50;44.60;;;;;;1483026;40;19944;-72
2021/06/16 06:32:46;;;;;;;;;;;23.50;44.60;;;;;;1479887;40;20099;-71
2021/06/16 06:34:07;;;;;;;;;;;23.50;44.70;;;;;;1481103;40;21569;-72
2021/06/16 06:35:28;;;;;;;;;;;23.60;44.70;;;;;;1483391;40;20280;-72
2021/06/16 06:36:48;;;;;;;;;;;23.60;44.70;;;;;;1482364;40;19936;-72
2021/06/16 06:38:11;;;;;;;;;;;23.60;44.60;;;;;;1482353;40;19940;-72
2021/06/16 06:39:32;;;;;;;;;;;23.60;44.70;;;;;;1483391;40;20282;-72
2021/06/16 06:40:53;;;;;;;;;;;23.70;44.70;;;;;;1481727;40;19940;-72
2021/06/16 06:42:15;;;;;;;;;;;23.70;44.70;;;;;;1483939;40;20231;-72
2021/06/16 06:43:36;;;;;;;;;;;23.70;44.70;;;;;;1481767;40;19929;-72
2021/06/16 06:44:57;;;;;;;;;;;23.70;44.70;;;;;;1482307;40;19940;-72
2021/06/16 06:46:18;;;;;;;;;;;23.80;44.80;;;;;;1483927;40;19963;-72
2021/06/16 06:47:39;;;;;;;;;;;23.80;44.80;;;;;;1483464;40;19932;-72
2021/06/16 06:48:59;;;;;;;;;;;23.80;44.80;;;;;;1481877;40;20147;-72
2021/06/16 06:50:20;;;;;;;;;;;23.90;44.90;;;;;;1482967;40;19973;-72
2021/06/16 06:51:41;;;;;;;;;;;23.90;44.90;;;;;;1482256;39;20045;-72
2021/06/16 06:53:02;;;;;;;;;;;23.90;44.90;;;;;;1482834;40;20441;-71
2021/06/16 06:54:22;;;;;;;;;;;23.90;44.90;;;;;;1481373;40;20233;-72
2021/06/16 06:55:43;;;;;;;;;;;23.90;44.90;;;;;;1481816;40;20449;-72
2021/06/16 06:57:04;;;;;;;;;;;24.00;45.00;;;;;;1482835;40;20025;-72
2021/06/16 06:58:25;;;;;;;;;;;24.00;45.00;;;;;;1481289;40;20458;-72
2021/06/16 06:59:46;;;;;;;;;;;24.00;45.00;;;;;;1482197;40;19932;-72
2021/06/16 07:01:07;;;;;;;;;;;24.10;45.00;;;;;;1482183;40;19937;-72
2021/06/16 07:02:28;;;;;;;;;;;24.10;45.00;;;;;;1483942;40;20156;-72
2021/06/16 07:03:49;;;;;;;;;;;24.20;45.10;;;;;;1483197;40;19941;-73
2021/06/16 07:05:10;;;;;;;;;;;24.10;45.00;;;;;;1481555;40;19932;-72
2021/06/16 07:06:31;;;;;;;;;;;24.20;45.00;;;;;;1479290;40;20066;-72
2021/06/16 07:07:52;;;;;;;;;;;24.20;45.00;;;;;;1481667;40;19937;-72
2021/06/16 07:09:13;;;;;;;;;;;24.20;45.00;;;;;;1483001;40;20380;-72
2021/06/16 07:10:33;;;;;;;;;;;24.30;45.10;;;;;;1484009;40;19942;-72
2021/06/16 07:11:54;;;;;;;;;;;24.30;45.20;;;;;;1482347;40;19951;-72
2021/06/16 07:13:15;;;;;;;;;;;24.30;45.10;;;;;;1484930;40;20017;-72
2021/06/16 07:14:38;;;;;;;;;;;24.30;45.10;;;;;;1483967;40;19940;-72
2021/06/16 07:15:58;;;;;;;;;;;24.30;45.20;;;;;;1485375;40;19936;-72
2021/06/16 07:17:20;;;;;;;;;;;24.40;45.20;;;;;;1486169;40;19940;-72
2021/06/16 07:18:41;;;;;;;;;;;24.40;45.20;;;;;;1484059;40;20063;-72
2021/06/16 07:20:05;;;;;;;;;;;24.40;45.20;;;;;;1482814;40;21402;-71
2021/06/16 07:21:26;;;;;;;;;;;24.50;45.30;;;;;;1483136;40;19951;-72
2021/06/16 07:22:47;;;;;;;;;;;24.50;45.30;;;;;;1482077;40;19932;-72
2021/06/16 07:24:09;;;;;;;;;;;24.50;45.30;;;;;;1484169;40;19936;-72
2021/06/16 07:25:30;;;;;;;;;;;24.50;45.30;;;;;;1482386;40;19944;-72
2021/06/16 07:26:51;;;;;;;;;;;24.50;45.30;;;;;;1482694;40;20033;-72
2021/06/16 07:28:12;;;;;;;;;;;24.60;45.30;;;;;;1482647;40;19956;-72
2021/06/16 07:29:33;;;;;;;;;;;24.60;45.30;;;;;;1482447;40;19943;-72
2021/06/16 07:30:53;;;;;;;;;;;24.70;45.40;;;;;;1481903;40;19944;-72
2021/06/16 07:32:16;;;;;;;;;;;24.70;45.50;;;;;;1481118;40;19933;-72
2021/06/16 07:33:37;;;;;;;;;;;24.70;45.50;;;;;;1482573;40;19956;-72
2021/06/16 07:34:59;;;;;;;;;;;24.80;45.80;;;;;;1481393;40;19965;-72
2021/06/16 07:36:20;;;;;;;;;;;24.80;45.60;;;;;;1481951;40;19936;-72
2021/06/16 07:37:41;;;;;;;;;;;24.80;45.50;;;;;;1482214;40;19945;-72
2021/06/16 07:39:03;;;;;;;;;;;24.80;45.60;;;;;;1482818;40;19948;-72
2021/06/16 07:40:23;;;;;;;;;;;24.90;45.60;;;;;;1480685;40;20280;-72
2021/06/16 07:41:44;;;;;;;;;;;24.90;45.60;;;;;;1480579;40;19932;-72
2021/06/16 07:43:05;;;;;;;;;;;24.90;45.60;;;;;;1482082;40;19936;-72
2021/06/16 07:44:26;;;;;;;;;;;24.90;45.60;;;;;;1482216;40;19937;-72
2021/06/16 07:45:47;;;;;;;;;;;25.00;45.60;;;;;;1479892;40;20359;-72
2021/06/16 07:47:08;;;;;;;;;;;25.00;45.70;;;;;;1482813;40;19939;-72
2021/06/16 07:48:28;;;;;;;;;;;25.10;45.70;;;;;;1482115;40;19936;-72
2021/06/16 07:49:50;;;;;;;;;;;25.10;45.70;;;;;;1482415;40;19940;-72
2021/06/16 07:51:10;;;;;;;;;;;25.10;45.80;;;;;;1483691;40;19947;-72
2021/06/16 07:52:31;;;;;;;;;;;25.20;45.80;;;;;;1481123;40;19952;-72
2021/06/16 07:53:52;;;;;;;;;;;25.20;45.80;;;;;;1482430;40;20021;-72
2021/06/16 07:55:13;;;;;;;;;;;25.20;45.80;;;;;;1481397;40;20190;-72